Time;durP1;ratioP1;P1;durP2;ratioP2;P2;SDS_P1;SDS_P2;PMS_P1;PMS_P2;Temp;Humidity;BMP_temperature;BMP_pressure;BME280_temperature;BME280_humidity;BME280_pressure;Samples;Min_cycle;Max_cycle;Signal;HPM_P1;HPM_P2
2021/10/18 00:00:39;;;;;;;92.60;41.90;;;;;;;;;;5135855;27;20015;-69
2021/10/18 00:03:04;;;;;;;99.85;42.20;;;;;;;;;;5135728;27;19912;-69
2021/10/18 00:05:29;;;;;;;92.40;41.97;;;;;;;;;;5135830;27;20023;-69
2021/10/18 00:07:55;;;;;;;122.38;50.55;;;;;;;;;;5135564;27;20572;-69
2021/10/18 00:10:20;;;;;;;109.60;46.35;;;;;;;;;;5135925;27;20019;-69
2021/10/18 00:12:45;;;;;;;103.57;46.85;;;;;;;;;;5135643;27;20018;-69
2021/10/18 00:15:12;;;;;;;88.05;41.67;;;;;;;;;;5135934;27;20080;-69
2021/10/18 00:17:37;;;;;;;92.88;40.35;;;;;;;;;;5135560;27;20106;-69
2021/10/18 00:20:06;;;;;;;79.80;36.67;;;;;;;;;;5135595;27;20094;-69
2021/10/18 00:22:32;;;;;;;73.22;34.75;;;;;;;;;;5135626;27;20055;-69
2021/10/18 00:24:57;;;;;;;76.22;34.78;;;;;;;;;;5135504;27;20064;-69
2021/10/18 00:27:22;;;;;;;94.28;37.83;;;;;;;;;;5118064;27;20056;-69
2021/10/18 00:29:47;;;;;;;77.25;34.63;;;;;;;;;;5135252;27;20054;-68
2021/10/18 00:32:13;;;;;;;76.05;33.83;;;;;;;;;;5134852;27;20457;-69
2021/10/18 00:34:38;;;;;;;74.28;33.75;;;;;;;;;;5134557;27;20079;-69
2021/10/18 00:37:03;;;;;;;75.97;32.97;;;;;;;;;;5135201;27;20336;-69
2021/10/18 00:39:28;;;;;;;70.45;31.10;;;;;;;;;;5135057;27;20047;-69
2021/10/18 00:41:54;;;;;;;73.68;32.22;;;;;;;;;;5135122;27;20445;-69
2021/10/18 00:44:19;;;;;;;68.28;30.17;;;;;;;;;;5117230;27;20019;-69
2021/10/18 00:46:45;;;;;;;62.35;27.63;;;;;;;;;;5134865;27;20023;-69
2021/10/18 00:49:10;;;;;;;63.05;28.73;;;;;;;;;;5135074;27;20030;-68
2021/10/18 00:51:35;;;;;;;57.25;26.55;;;;;;;;;;5135139;27;20082;-69
2021/10/18 00:54:01;;;;;;;52.17;25.58;;;;;;;;;;5134780;27;20094;-69
2021/10/18 00:56:26;;;;;;;51.38;25.17;;;;;;;;;;5134725;27;20486;-69
2021/10/18 00:58:54;;;;;;;61.85;27.33;;;;;;;;;;5134476;27;20490;-69
2021/10/18 01:01:19;;;;;;;58.17;28.15;;;;;;;;;;5134626;27;20019;-69
2021/10/18 01:03:44;;;;;;;56.45;28.08;;;;;;;;;;5134643;27;20094;-69
2021/10/18 01:06:10;;;;;;;60.45;27.90;;;;;;;;;;5134885;27;20119;-69
2021/10/18 01:08:35;;;;;;;57.20;26.35;;;;;;;;;;5133843;27;20077;-69
2021/10/18 01:11:02;;;;;;;58.65;25.17;;;;;;;;;;5134384;27;20019;-69
2021/10/18 01:13:27;;;;;;;54.72;26.08;;;;;;;;;;5134435;27;20050;-69
2021/10/18 01:15:53;;;;;;;47.97;23.95;;;;;;;;;;5115875;27;20499;-69
2021/10/18 01:18:18;;;;;;;54.90;24.90;;;;;;;;;;5134627;27;20019;-69
2021/10/18 01:20:44;;;;;;;54.47;25.30;;;;;;;;;;5134188;27;20107;-69
2021/10/18 01:23:09;;;;;;;50.78;23.73;;;;;;;;;;5115858;27;20050;-69
2021/10/18 01:25:36;;;;;;;50.72;22.33;;;;;;;;;;5134505;27;20011;-69
2021/10/18 01:28:01;;;;;;;48.10;22.67;;;;;;;;;;5134115;27;20102;-69
2021/10/18 01:30:27;;;;;;;48.42;22.95;;;;;;;;;;5134185;27;20523;-69
2021/10/18 01:32:52;;;;;;;45.35;22.13;;;;;;;;;;5133932;27;20383;-69
2021/10/18 01:35:17;;;;;;;48.72;23.75;;;;;;;;;;5134274;27;20011;-69
2021/10/18 01:37:43;;;;;;;44.35;22.52;;;;;;;;;;5134127;27;20420;-69
2021/10/18 01:40:09;;;;;;;46.92;23.08;;;;;;;;;;5134055;27;20023;-69
2021/10/18 01:42:35;;;;;;;50.15;22.70;;;;;;;;;;5133854;27;20027;-69
2021/10/18 01:45:00;;;;;;;49.53;25.02;;;;;;;;;;5134038;27;20017;-69
2021/10/18 01:47:27;;;;;;;43.05;21.95;;;;;;;;;;5133992;27;20071;-68
2021/10/18 01:49:53;;;;;;;44.65;23.17;;;;;;;;;;5134232;27;20015;-68
2021/10/18 01:52:18;;;;;;;54.30;23.88;;;;;;;;;;5134033;28;20424;-69
2021/10/18 01:54:44;;;;;;;50.95;25.63;;;;;;;;;;5134009;28;20088;-69
2021/10/18 01:57:09;;;;;;;54.15;26.25;;;;;;;;;;5133790;28;20019;-69
2021/10/18 01:59:34;;;;;;;54.30;27.17;;;;;;;;;;5134080;28;20015;-69
2021/10/18 02:02:00;;;;;;;55.13;27.17;;;;;;;;;;5115215;28;20072;-69
2021/10/18 02:04:25;;;;;;;55.72;26.85;;;;;;;;;;5134272;28;20094;-69
2021/10/18 02:06:50;;;;;;;57.30;25.92;;;;;;;;;;5133836;28;20483;-69
2021/10/18 02:09:16;;;;;;;49.13;24.73;;;;;;;;;;5133886;28;20011;-69
2021/10/18 02:11:41;;;;;;;62.65;28.42;;;;;;;;;;5133562;28;20015;-69
2021/10/18 02:14:06;;;;;;;65.03;29.45;;;;;;;;;;5133961;28;20114;-69
2021/10/18 02:16:31;;;;;;;54.78;28.33;;;;;;;;;;5133658;28;20026;-69
2021/10/18 02:18:57;;;;;;;54.00;27.25;;;;;;;;;;5115160;28;20027;-69
2021/10/18 02:21:22;;;;;;;57.35;28.33;;;;;;;;;;5137304;27;20528;-69
2021/10/18 02:23:47;;;;;;;53.70;27.15;;;;;;;;;;5138090;27;20030;-69
2021/10/18 02:26:12;;;;;;;60.15;27.15;;;;;;;;;;5137839;27;20019;-69
2021/10/18 02:28:38;;;;;;;48.75;25.60;;;;;;;;;;5137643;27;20007;-69
2021/10/18 02:31:03;;;;;;;57.47;26.40;;;;;;;;;;5137837;27;20015;-69
2021/10/18 02:33:28;;;;;;;58.13;26.27;;;;;;;;;;5137436;27;20489;-69
2021/10/18 02:35:54;;;;;;;52.30;26.42;;;;;;;;;;5137499;27;20487;-69
2021/10/18 02:38:19;;;;;;;52.15;25.85;;;;;;;;;;5137447;27;20067;-69
2021/10/18 02:40:44;;;;;;;57.58;25.58;;;;;;;;;;5137432;27;20375;-69
2021/10/18 02:43:09;;;;;;;48.50;23.58;;;;;;;;;;5137544;27;20027;-69
2021/10/18 02:45:35;;;;;;;44.67;23.48;;;;;;;;;;5137426;27;20007;-68
2021/10/18 02:48:00;;;;;;;45.65;24.15;;;;;;;;;;5137116;27;20475;-69
2021/10/18 02:50:25;;;;;;;48.72;24.15;;;;;;;;;;5137488;27;20436;-69
2021/10/18 02:52:50;;;;;;;41.80;22.80;;;;;;;;;;5137270;27;20012;-69
2021/10/18 02:55:16;;;;;;;45.85;23.52;;;;;;;;;;5137136;27;20015;-69
2021/10/18 02:57:41;;;;;;;46.75;24.70;;;;;;;;;;5137242;27;20539;-69
2021/10/18 03:00:06;;;;;;;52.45;23.65;;;;;;;;;;5137287;27;20029;-69
2021/10/18 03:02:32;;;;;;;50.38;23.83;;;;;;;;;;5136800;27;20023;-69
2021/10/18 03:04:57;;;;;;;48.65;23.98;;;;;;;;;;5137042;27;20423;-69
2021/10/18 03:07:23;;;;;;;49.22;24.50;;;;;;;;;;5137003;27;20436;-69
2021/10/18 03:09:48;;;;;;;46.80;23.55;;;;;;;;;;5136879;27;20007;-69
2021/10/18 03:12:13;;;;;;;43.97;22.02;;;;;;;;;;5118569;27;20019;-69
2021/10/18 03:14:38;;;;;;;44.55;23.00;;;;;;;;;;5136991;27;20027;-69
2021/10/18 03:17:04;;;;;;;49.17;22.90;;;;;;;;;;5118344;27;20062;-69
2021/10/18 03:19:29;;;;;;;46.88;23.80;;;;;;;;;;5136935;27;20019;-69
2021/10/18 03:21:54;;;;;;;46.63;22.92;;;;;;;;;;5136526;27;20034;-69
2021/10/18 03:24:20;;;;;;;50.70;24.67;;;;;;;;;;5136809;27;20011;-69
2021/10/18 03:26:45;;;;;;;47.65;22.63;;;;;;;;;;5136602;27;20502;-69
2021/10/18 03:29:10;;;;;;;46.55;22.10;;;;;;;;;;5136360;27;20039;-69
2021/10/18 03:31:35;;;;;;;49.58;24.25;;;;;;;;;;5135705;27;20098;-69
2021/10/18 03:34:01;;;;;;;49.55;24.15;;;;;;;;;;5136263;27;20486;-69
2021/10/18 03:36:26;;;;;;;48.72;22.85;;;;;;;;;;5136491;27;20023;-69
2021/10/18 03:38:51;;;;;;;44.63;22.77;;;;;;;;;;5136362;27;20023;-69
2021/10/18 03:41:17;;;;;;;42.65;22.73;;;;;;;;;;5136486;27;20020;-69
2021/10/18 03:43:42;;;;;;;42.03;21.40;;;;;;;;;;5136609;27;20055;-69
2021/10/18 03:46:07;;;;;;;60.00;24.08;;;;;;;;;;5136335;27;20019;-69
2021/10/18 03:48:33;;;;;;;50.90;23.35;;;;;;;;;;5136241;27;20019;-69
2021/10/18 03:50:58;;;;;;;61.58;22.88;;;;;;;;;;5135919;27;20411;-69
2021/10/18 03:53:24;;;;;;;45.58;22.35;;;;;;;;;;5136078;27;20007;-69
2021/10/18 03:55:49;;;;;;;48.53;22.15;;;;;;;;;;5136063;27;20378;-69
2021/10/18 03:58:14;;;;;;;40.60;19.75;;;;;;;;;;5135992;27;20053;-69
2021/10/18 04:00:40;;;;;;;43.05;22.45;;;;;;;;;;5136122;27;20011;-69
2021/10/18 04:03:05;;;;;;;40.22;21.70;;;;;;;;;;5135604;27;20097;-69
2021/10/18 04:05:30;;;;;;;41.30;20.92;;;;;;;;;;5135961;27;20019;-69
2021/10/18 04:07:55;;;;;;;44.58;21.30;;;;;;;;;;5135706;27;20030;-69
2021/10/18 04:10:21;;;;;;;42.85;21.77;;;;;;;;;;5135896;27;20016;-69
2021/10/18 04:12:46;;;;;;;46.95;22.60;;;;;;;;;;5135443;27;20050;-69
2021/10/18 04:15:12;;;;;;;43.22;20.10;;;;;;;;;;5135640;27;20015;-69
2021/10/18 04:17:37;;;;;;;43.67;19.88;;;;;;;;;;5135933;27;20038;-69
2021/10/18 04:20:03;;;;;;;42.00;21.50;;;;;;;;;;5135567;27;20361;-69
2021/10/18 04:22:29;;;;;;;40.63;20.33;;;;;;;;;;5135290;27;20023;-69
2021/10/18 04:24:54;;;;;;;38.85;20.45;;;;;;;;;;5135570;27;20075;-69
2021/10/18 04:27:19;;;;;;;41.95;20.85;;;;;;;;;;5135358;27;20023;-69
2021/10/18 04:29:45;;;;;;;44.53;21.70;;;;;;;;;;5134998;27;20031;-69
2021/10/18 04:32:10;;;;;;;45.17;21.33;;;;;;;;;;5116524;27;20046;-69
2021/10/18 04:34:35;;;;;;;44.50;22.75;;;;;;;;;;5134633;27;20019;-69
2021/10/18 04:37:00;;;;;;;50.97;24.15;;;;;;;;;;5134874;27;20547;-68
2021/10/18 04:39:26;;;;;;;51.47;23.45;;;;;;;;;;5117046;27;20019;-69
2021/10/18 04:41:51;;;;;;;49.00;24.48;;;;;;;;;;5135004;27;20373;-69
2021/10/18 04:44:16;;;;;;;49.33;24.70;;;;;;;;;;5135118;27;20015;-69
2021/10/18 04:46:42;;;;;;;56.53;25.60;;;;;;;;;;5135292;27;20023;-68
2021/10/18 04:49:07;;;;;;;63.35;24.55;;;;;;;;;;5134796;27;20064;-68
2021/10/18 04:51:33;;;;;;;57.42;24.75;;;;;;;;;;5116741;27;20019;-68
2021/10/18 04:53:58;;;;;;;46.65;22.85;;;;;;;;;;5135800;27;20360;-69
2021/10/18 04:56:23;;;;;;;43.78;22.83;;;;;;;;;;5134881;27;20371;-68
2021/10/18 04:58:48;;;;;;;54.70;23.80;;;;;;;;;;5116798;27;20021;-69
2021/10/18 05:01:14;;;;;;;42.67;22.98;;;;;;;;;;5134883;27;20027;-69
2021/10/18 05:03:39;;;;;;;43.00;22.73;;;;;;;;;;5134511;27;20019;-69
2021/10/18 05:06:04;;;;;;;50.45;24.27;;;;;;;;;;5116511;27;20456;-69
2021/10/18 05:08:30;;;;;;;50.65;23.70;;;;;;;;;;5134652;27;20152;-69
2021/10/18 05:10:56;;;;;;;50.00;23.75;;;;;;;;;;5134258;27;20053;-69
2021/10/18 05:13:21;;;;;;;61.45;27.08;;;;;;;;;;5134457;27;20353;-68
2021/10/18 05:15:49;;;;;;;57.22;28.02;;;;;;;;;;5134437;27;20026;-69
2021/10/18 05:18:14;;;;;;;113.30;45.45;;;;;;;;;;5134485;27;20026;-69
2021/10/18 05:20:39;;;;;;;97.55;44.72;;;;;;;;;;5134699;27;20023;-69
2021/10/18 05:23:05;;;;;;;93.28;37.55;;;;;;;;;;5134367;27;20114;-69
2021/10/18 05:25:30;;;;;;;73.68;32.70;;;;;;;;;;5134447;27;20349;-69
2021/10/18 05:27:55;;;;;;;70.28;31.92;;;;;;;;;;5134281;27;20403;-69
2021/10/18 05:30:24;;;;;;;90.43;37.67;;;;;;;;;;5134109;27;20123;-69
2021/10/18 05:32:50;;;;;;;77.68;32.40;;;;;;;;;;5134133;27;20510;-69
2021/10/18 05:35:15;;;;;;;74.25;30.70;;;;;;;;;;5134325;27;20106;-68
2021/10/18 05:37:41;;;;;;;63.80;30.75;;;;;;;;;;5134068;27;20015;-68
2021/10/18 05:40:07;;;;;;;62.88;32.30;;;;;;;;;;5134339;27;20509;-69
2021/10/18 05:42:32;;;;;;;67.03;32.05;;;;;;;;;;5150142;27;20018;-69
2021/10/18 05:44:57;;;;;;;70.28;34.40;;;;;;;;;;5154499;27;20010;-69
2021/10/18 05:47:23;;;;;;;80.85;32.72;;;;;;;;;;5154695;27;20011;-69
2021/10/18 05:49:48;;;;;;;62.55;33.08;;;;;;;;;;5154551;27;20462;-68
2021/10/18 05:52:14;;;;;;;78.50;34.08;;;;;;;;;;5135152;27;20097;-69
2021/10/18 05:54:39;;;;;;;75.78;33.22;;;;;;;;;;5135380;27;20408;-68
2021/10/18 05:57:04;;;;;;;85.88;36.85;;;;;;;;;;5154379;27;20598;-68
2021/10/18 05:59:29;;;;;;;82.72;36.42;;;;;;;;;;5153975;27;20011;-69
2021/10/18 06:04:30;;;;;;;64.13;30.67;;;;;;;;;;5067178;22;20053;-67
2021/10/18 06:06:55;;;;;;;61.13;31.92;;;;;;;;;;5053276;28;20017;-67
2021/10/18 06:09:20;;;;;;;73.72;34.40;;;;;;;;;;5052208;28;20029;-68
2021/10/18 06:11:45;;;;;;;82.97;33.45;;;;;;;;;;5043868;28;20021;-68
2021/10/18 06:14:11;;;;;;;63.85;30.77;;;;;;;;;;5042679;28;20030;-67
2021/10/18 06:16:36;;;;;;;65.90;32.15;;;;;;;;;;5032256;28;20036;-67
2021/10/18 06:19:02;;;;;;;62.05;30.70;;;;;;;;;;5031057;28;20524;-67
2021/10/18 06:21:27;;;;;;;58.65;29.00;;;;;;;;;;5050697;28;20064;-65
2021/10/18 06:23:52;;;;;;;62.35;30.80;;;;;;;;;;5065698;28;20013;-66
2021/10/18 06:26:17;;;;;;;56.50;30.60;;;;;;;;;;5066537;28;20030;-68
2021/10/18 06:28:43;;;;;;;60.47;30.33;;;;;;;;;;5046543;28;20451;-66
2021/10/18 06:31:08;;;;;;;50.90;27.42;;;;;;;;;;5048062;28;20024;-65
2021/10/18 06:33:34;;;;;;;62.75;25.75;;;;;;;;;;5035805;28;20476;-65
2021/10/18 06:35:59;;;;;;;56.55;25.85;;;;;;;;;;5051512;28;20143;-67
2021/10/18 06:38:24;;;;;;;49.70;26.33;;;;;;;;;;5045647;28;20063;-68
2021/10/18 06:40:50;;;;;;;54.03;25.13;;;;;;;;;;5037424;28;20028;-66
2021/10/18 06:43:17;;;;;;;45.63;25.20;;;;;;;;;;5046913;28;20507;-70
2021/10/18 06:45:42;;;;;;;55.80;26.23;;;;;;;;;;5044444;28;20025;-67
2021/10/18 06:48:08;;;;;;;58.15;27.08;;;;;;;;;;5050463;28;20021;-66
2021/10/18 06:50:34;;;;;;;54.63;27.50;;;;;;;;;;5044270;28;20028;-67
2021/10/18 06:53:00;;;;;;;52.63;28.90;;;;;;;;;;5040095;28;20021;-67
2021/10/18 06:55:27;;;;;;;50.53;26.88;;;;;;;;;;5044554;28;20021;-68
2021/10/18 06:57:52;;;;;;;57.67;27.58;;;;;;;;;;5052035;28;20027;-68
2021/10/18 07:00:18;;;;;;;45.22;25.50;;;;;;;;;;5050668;28;20073;-68
2021/10/18 07:02:43;;;;;;;46.05;24.70;;;;;;;;;;5043124;28;20041;-67
2021/10/18 07:05:08;;;;;;;46.85;25.35;;;;;;;;;;5050483;28;20035;-68
2021/10/18 07:07:37;;;;;;;53.17;28.08;;;;;;;;;;5032787;28;20013;-67
2021/10/18 07:10:03;;;;;;;61.50;33.60;;;;;;;;;;5034631;28;20017;-67
2021/10/18 07:12:28;;;;;;;69.00;34.70;;;;;;;;;;5034653;28;20443;-68
2021/10/18 07:14:54;;;;;;;67.65;34.65;;;;;;;;;;5033848;28;20469;-65
2021/10/18 07:17:21;;;;;;;68.88;38.53;;;;;;;;;;5035880;28;20021;-68
2021/10/18 07:19:47;;;;;;;75.90;38.10;;;;;;;;;;5033719;28;20029;-67
2021/10/18 07:22:12;;;;;;;82.85;40.17;;;;;;;;;;5034954;28;20029;-68
2021/10/18 07:24:37;;;;;;;70.90;37.50;;;;;;;;;;5037831;28;20049;-68
2021/10/18 07:27:03;;;;;;;68.25;37.63;;;;;;;;;;5043888;28;20068;-68
2021/10/18 07:29:28;;;;;;;98.05;48.55;;;;;;;;;;5042992;28;20021;-66
2021/10/18 07:31:53;;;;;;;125.47;60.25;;;;;;;;;;5041921;28;20386;-67
2021/10/18 07:34:18;;;;;;;109.47;53.53;;;;;;;;;;5046018;28;20048;-66
2021/10/18 07:36:50;;;;;;;115.30;55.22;;;;;;;;;;5029889;28;20486;-68
2021/10/18 07:39:17;;;;;;;99.07;47.25;;;;;;;;;;5037744;28;20559;-68
2021/10/18 07:41:43;;;;;;;113.82;56.72;;;;;;;;;;5038965;28;20037;-67
2021/10/18 07:44:08;;;;;;;99.75;50.33;;;;;;;;;;5043400;28;20024;-67
2021/10/18 07:46:34;;;;;;;103.10;51.53;;;;;;;;;;5033370;28;20017;-67
2021/10/18 07:49:00;;;;;;;146.90;68.80;;;;;;;;;;5027700;28;20405;-66
2021/10/18 07:51:26;;;;;;;152.63;75.60;;;;;;;;;;5041441;28;20025;-67
2021/10/18 07:53:51;;;;;;;142.48;67.72;;;;;;;;;;5033544;28;20013;-67
2021/10/18 07:56:16;;;;;;;87.93;44.95;;;;;;;;;;5038984;28;20393;-69
2021/10/18 07:58:41;;;;;;;84.97;43.53;;;;;;;;;;5038982;28;20052;-68
2021/10/18 08:01:07;;;;;;;60.70;32.85;;;;;;;;;;5030660;28;20584;-68
2021/10/18 08:03:32;;;;;;;40.15;22.73;;;;;;;;;;5034380;28;20049;-67
2021/10/18 08:05:57;;;;;;;39.80;23.85;;;;;;;;;;5042781;28;20036;-65
2021/10/18 08:08:29;;;;;;;44.70;22.65;;;;;;;;;;5040245;28;20104;-68
2021/10/18 08:10:54;;;;;;;38.45;21.48;;;;;;;;;;5038180;28;20025;-64
2021/10/18 08:13:19;;;;;;;64.05;33.92;;;;;;;;;;5034127;28;20033;-67
2021/10/18 08:15:44;;;;;;;67.47;34.00;;;;;;;;;;5031880;28;20026;-67
2021/10/18 08:18:10;;;;;;;40.30;25.40;;;;;;;;;;5032235;28;20397;-68
2021/10/18 08:20:37;;;;;;;45.03;26.08;;;;;;;;;;5033297;28;20018;-67
2021/10/18 08:23:02;;;;;;;42.45;24.67;;;;;;;;;;5032506;28;20030;-66
2021/10/18 08:25:28;;;;;;;49.53;27.95;;;;;;;;;;5018127;28;20025;-67
2021/10/18 08:27:53;;;;;;;38.03;23.75;;;;;;;;;;5016145;28;20038;-66
2021/10/18 08:30:18;;;;;;;35.15;21.25;;;;;;;;;;5033928;28;20446;-66
2021/10/18 08:32:44;;;;;;;35.13;19.60;;;;;;;;;;5033112;28;20028;-66
2021/10/18 08:35:12;;;;;;;31.25;19.70;;;;;;;;;;5033269;28;20017;-66
2021/10/18 08:40:24;;;;;;;56.13;32.38;;;;;;;;;;5024883;28;20059;-68
2021/10/18 08:42:57;;;;;;;102.18;56.47;;;;;;;;;;5034102;28;20466;-69
2021/10/18 08:45:22;;;;;;;65.72;38.47;;;;;;;;;;5026778;28;20112;-68
2021/10/18 08:47:48;;;;;;;105.85;59.45;;;;;;;;;;5029854;28;20565;-68
2021/10/18 08:50:14;;;;;;;54.50;33.78;;;;;;;;;;5028576;28;20515;-68
2021/10/18 08:52:41;;;;;;;40.10;23.52;;;;;;;;;;5029671;28;20026;-68
2021/10/18 08:55:06;;;;;;;72.90;40.55;;;;;;;;;;5027833;28;20033;-68
2021/10/18 08:57:32;;;;;;;53.90;31.92;;;;;;;;;;5030455;28;20024;-69
2021/10/18 08:59:57;;;;;;;38.15;19.98;;;;;;;;;;5032457;28;20029;-69
2021/10/18 09:02:42;;;;;;;33.93;19.60;;;;;;;;;;5032505;28;20033;-69
2021/10/18 09:05:08;;;;;;;40.60;23.23;;;;;;;;;;5031555;28;20259;-68
2021/10/18 09:07:35;;;;;;;48.58;28.58;;;;;;;;;;5030958;28;20441;-68
2021/10/18 09:10:01;;;;;;;36.88;22.45;;;;;;;;;;5031907;28;20034;-69
2021/10/18 09:12:27;;;;;;;25.38;15.07;;;;;;;;;;5030458;28;20028;-69
2021/10/18 09:14:53;;;;;;;24.42;12.75;;;;;;;;;;5030363;28;20026;-70
2021/10/18 09:17:34;;;;;;;20.15;11.52;;;;;;;;;;5029613;28;20478;-69
2021/10/18 09:20:18;;;;;;;29.05;12.88;;;;;;;;;;5029359;28;20482;-70
2021/10/18 09:22:44;;;;;;;19.42;12.50;;;;;;;;;;5031198;28;20032;-68
2021/10/18 09:25:09;;;;;;;22.10;10.77;;;;;;;;;;5032541;28;20375;-70
2021/10/18 09:27:34;;;;;;;17.67;11.33;;;;;;;;;;5032437;28;20263;-68
2021/10/18 09:30:00;;;;;;;21.63;11.45;;;;;;;;;;5030258;28;20278;-69
2021/10/18 09:32:29;;;;;;;18.33;10.60;;;;;;;;;;5032246;28;20029;-68
2021/10/18 09:35:08;;;;;;;20.95;10.50;;;;;;;;;;5033315;28;20067;-68
2021/10/18 09:37:41;;;;;;;16.33;9.60;;;;;;;;;;5031451;28;20029;-68
2021/10/18 09:40:06;;;;;;;22.17;11.45;;;;;;;;;;5031169;28;20478;-68
2021/10/18 09:42:32;;;;;;;14.05;6.45;;;;;;;;;;5031291;28;20125;-69
2021/10/18 10:52:35;;;;;;;13.38;6.82;;;;;;;;;;5031535;28;20493;-71
2021/10/18 10:55:17;;;;;;;16.83;6.20;;;;;;;;;;5032448;28;20486;-71
2021/10/18 10:57:42;;;;;;;12.07;6.90;;;;;;;;;;5034255;28;20013;-70
2021/10/18 11:00:27;;;;;;;12.50;6.25;;;;;;;;;;5034576;28;20061;-71
2021/10/18 11:02:53;;;;;;;13.23;6.82;;;;;;;;;;5030861;28;20477;-70
2021/10/18 11:05:27;;;;;;;10.43;5.70;;;;;;;;;;5034699;28;20155;-69
2021/10/18 11:07:52;;;;;;;17.20;6.95;;;;;;;;;;5034814;28;20037;-67
2021/10/18 11:10:20;;;;;;;19.60;7.03;;;;;;;;;;5036541;28;20033;-66
2021/10/18 11:12:48;;;;;;;14.48;7.07;;;;;;;;;;5033584;28;20029;-68
2021/10/18 11:15:15;;;;;;;11.63;6.87;;;;;;;;;;5038263;28;20496;-67
2021/10/18 11:17:44;;;;;;;13.20;6.22;;;;;;;;;;5034077;28;20467;-69
2021/10/18 11:20:11;;;;;;;12.18;6.38;;;;;;;;;;5034170;28;20018;-67
2021/10/18 11:22:40;;;;;;;8.25;6.13;;;;;;;;;;5035271;28;20088;-68
2021/10/18 11:25:20;;;;;;;8.15;5.68;;;;;;;;;;5034544;28;20071;-69
2021/10/18 11:27:49;;;;;;;12.25;6.47;;;;;;;;;;5034940;28;20025;-71
2021/10/18 11:30:16;;;;;;;14.80;7.20;;;;;;;;;;5032626;28;20022;-69
2021/10/18 11:32:42;;;;;;;14.15;7.93;;;;;;;;;;5034266;28;20025;-70
2021/10/18 11:35:17;;;;;;;56.92;9.65;;;;;;;;;;5031954;28;20474;-72
2021/10/18 11:37:55;;;;;;;15.20;6.60;;;;;;;;;;5043967;28;20021;-74
2021/10/18 11:40:22;;;;;;;11.02;6.50;;;;;;;;;;5056083;28;20041;-74
2021/10/18 11:42:51;;;;;;;17.55;7.45;;;;;;;;;;5055230;28;20139;-72
2021/10/18 11:45:21;;;;;;;11.73;6.93;;;;;;;;;;5032181;28;20516;-73
2021/10/18 11:47:46;;;;;;;17.80;7.45;;;;;;;;;;5036629;28;20021;-72
2021/10/18 11:50:12;;;;;;;20.38;8.90;;;;;;;;;;5043274;28;20024;-70
2021/10/18 11:52:40;;;;;;;15.48;8.43;;;;;;;;;;5037414;28;20029;-68
2021/10/18 11:55:07;;;;;;;20.30;9.85;;;;;;;;;;5030566;28;20036;-69
2021/10/18 11:57:33;;;;;;;22.02;11.90;;;;;;;;;;5039796;28;20083;-69
2021/10/18 11:59:59;;;;;;;13.63;8.57;;;;;;;;;;5035328;28;20041;-68
2021/10/18 12:02:25;;;;;;;12.70;6.63;;;;;;;;;;5035095;28;20037;-70
2021/10/18 12:04:57;;;;;;;12.10;6.18;;;;;;;;;;5031520;28;20036;-69
2021/10/18 12:07:41;;;;;;;14.10;7.30;;;;;;;;;;5033212;28;20028;-70
2021/10/18 12:10:25;;;;;;;15.35;7.85;;;;;;;;;;5032604;28;20477;-70
2021/10/18 12:13:03;;;;;;;20.42;7.72;;;;;;;;;;5034209;28;20068;-70
2021/10/18 12:15:28;;;;;;;17.63;7.32;;;;;;;;;;5033878;28;20040;-73
2021/10/18 12:17:54;;;;;;;9.52;6.82;;;;;;;;;;5031380;28;20470;-69
2021/10/18 12:20:19;;;;;;;13.85;6.95;;;;;;;;;;5030884;28;20032;-71
2021/10/18 12:23:16;;;;;;;9.45;5.68;;;;;;;;;;5029813;28;20033;-70
2021/10/18 12:25:50;;;;;;;10.50;5.45;;;;;;;;;;5008624;28;20465;-68
2021/10/18 12:28:30;;;;;;;12.75;6.28;;;;;;;;;;5033376;28;20441;-67
2021/10/18 12:30:56;;;;;;;9.98;5.60;;;;;;;;;;5033493;28;20081;-67
2021/10/18 12:33:21;;;;;;;8.57;5.13;;;;;;;;;;5029512;28;20029;-69
2021/10/18 12:35:56;;;;;;;12.00;6.25;;;;;;;;;;5031600;28;20037;-68
2021/10/18 12:38:24;;;;;;;9.77;5.93;;;;;;;;;;5032583;28;20021;-68
2021/10/18 12:40:49;;;;;;;15.10;6.07;;;;;;;;;;5032339;28;20474;-68
2021/10/18 12:43:27;;;;;;;11.47;6.00;;;;;;;;;;5033260;28;20119;-67
2021/10/18 12:45:53;;;;;;;13.02;7.55;;;;;;;;;;5032794;28;20767;-66
2021/10/18 12:48:22;;;;;;;14.43;7.22;;;;;;;;;;5033106;28;20031;-67
2021/10/18 12:50:47;;;;;;;;;;;;;;;;;;5033219;28;20040;-65
2021/10/18 12:53:25;;;;;;;20.70;9.15;;;;;;;;;;5033856;28;19909;-68
2021/10/18 12:55:51;;;;;;;12.45;7.30;;;;;;;;;;5031981;28;20112;-68
2021/10/18 12:58:18;;;;;;;14.90;6.93;;;;;;;;;;5031005;28;20164;-64
2021/10/18 13:00:43;;;;;;;14.07;7.72;;;;;;;;;;5033699;28;20025;-69
2021/10/18 13:03:08;;;;;;;16.95;7.82;;;;;;;;;;5030175;28;20049;-65
2021/10/18 13:05:37;;;;;;;14.43;5.93;;;;;;;;;;5030106;28;20028;-65
2021/10/18 13:08:02;;;;;;;12.23;6.60;;;;;;;;;;5031480;28;20262;-66
2021/10/18 13:10:31;;;;;;;15.85;7.07;;;;;;;;;;5029963;28;20481;-66
2021/10/18 13:12:59;;;;;;;13.18;6.57;;;;;;;;;;5029813;28;20033;-66
2021/10/18 13:15:25;;;;;;;14.43;7.93;;;;;;;;;;5028667;28;20431;-69
2021/10/18 13:17:51;;;;;;;13.57;7.75;;;;;;;;;;5031201;28;20090;-65
2021/10/18 13:20:17;;;;;;;26.50;10.30;;;;;;;;;;5030230;28;20140;-65
2021/10/18 13:22:43;;;;;;;21.75;9.93;;;;;;;;;;5030387;28;20072;-67
2021/10/18 13:25:09;;;;;;;20.15;9.73;;;;;;;;;;5030520;28;20014;-65
2021/10/18 13:27:36;;;;;;;22.48;10.23;;;;;;;;;;5027675;28;20026;-65
2021/10/18 13:30:02;;;;;;;17.08;8.85;;;;;;;;;;5029685;28;20357;-65
2021/10/18 13:32:27;;;;;;;18.50;8.65;;;;;;;;;;5030418;28;20025;-67
2021/10/18 13:34:56;;;;;;;13.85;7.53;;;;;;;;;;5028003;28;20064;-66
2021/10/18 13:37:21;;;;;;;14.35;7.25;;;;;;;;;;5029013;28;20022;-65
2021/10/18 13:39:47;;;;;;;16.70;7.45;;;;;;;;;;5029020;28;20406;-65
2021/10/18 13:42:12;;;;;;;16.08;6.90;;;;;;;;;;5027889;28;20174;-66
2021/10/18 13:44:38;;;;;;;12.20;7.57;;;;;;;;;;5024091;28;20025;-68
2021/10/18 13:47:03;;;;;;;12.45;7.30;;;;;;;;;;5026379;28;20258;-66
2021/10/18 13:49:28;;;;;;;16.85;8.27;;;;;;;;;;5025551;28;20024;-66
2021/10/18 13:51:54;;;;;;;15.32;7.40;;;;;;;;;;5028574;28;20013;-66
2021/10/18 13:54:19;;;;;;;13.35;6.30;;;;;;;;;;5029718;28;20028;-65
2021/10/18 13:56:44;;;;;;;9.57;5.68;;;;;;;;;;5029550;28;20044;-65
2021/10/18 13:59:10;;;;;;;13.32;6.00;;;;;;;;;;5030708;28;20633;-65
2021/10/18 14:01:35;;;;;;;8.25;5.63;;;;;;;;;;5028847;28;20037;-65
2021/10/18 14:04:00;;;;;;;11.32;5.78;;;;;;;;;;5027581;28;20045;-66
2021/10/18 14:06:26;;;;;;;17.67;5.32;;;;;;;;;;5024791;28;20056;-65
2021/10/18 14:08:51;;;;;;;10.77;5.03;;;;;;;;;;5026443;28;20025;-66
2021/10/18 14:11:18;;;;;;;9.45;4.82;;;;;;;;;;5027866;28;20095;-65
2021/10/18 14:13:43;;;;;;;6.88;4.28;;;;;;;;;;5028295;28;20025;-65
2021/10/18 14:16:08;;;;;;;6.97;3.63;;;;;;;;;;5028375;28;20039;-64
2021/10/18 14:18:34;;;;;;;7.97;3.40;;;;;;;;;;5031042;28;20055;-64
2021/10/18 14:20:59;;;;;;;6.10;3.28;;;;;;;;;;5030574;28;20103;-65
2021/10/18 14:23:24;;;;;;;6.40;3.58;;;;;;;;;;5033121;28;20470;-65
2021/10/18 14:25:50;;;;;;;6.47;3.72;;;;;;;;;;5032163;28;20080;-65
2021/10/18 14:28:15;;;;;;;7.35;3.97;;;;;;;;;;5032588;28;20025;-66
2021/10/18 14:30:40;;;;;;;6.73;3.33;;;;;;;;;;5032424;28;20021;-63
2021/10/18 14:33:07;;;;;;;6.68;4.07;;;;;;;;;;5031889;28;20271;-67
2021/10/18 14:35:32;;;;;;;7.13;4.18;;;;;;;;;;5032878;28;20473;-65
2021/10/18 14:37:57;;;;;;;9.85;4.95;;;;;;;;;;5033839;28;20075;-66
2021/10/18 14:40:23;;;;;;;9.90;4.43;;;;;;;;;;5031715;28;20048;-66
2021/10/18 14:42:48;;;;;;;10.02;4.75;;;;;;;;;;5032564;28;20176;-65
2021/10/18 14:45:13;;;;;;;9.73;3.75;;;;;;;;;;5033358;28;20025;-65
2021/10/18 14:47:39;;;;;;;8.50;4.10;;;;;;;;;;5034095;28;20485;-65
2021/10/18 14:50:06;;;;;;;8.18;4.35;;;;;;;;;;5035799;28;20333;-65
2021/10/18 14:52:32;;;;;;;7.03;4.28;;;;;;;;;;5034859;28;20052;-65
2021/10/18 14:54:57;;;;;;;10.50;4.15;;;;;;;;;;5034460;28;20052;-66
2021/10/18 14:57:24;;;;;;;8.40;4.25;;;;;;;;;;5034061;28;20026;-65
2021/10/18 14:59:49;;;;;;;6.15;4.00;;;;;;;;;;5034399;28;20022;-65
2021/10/18 15:02:15;;;;;;;7.10;4.78;;;;;;;;;;5033267;28;20063;-65
2021/10/18 15:04:40;;;;;;;8.85;4.60;;;;;;;;;;5033741;28;20080;-66
2021/10/18 15:07:05;;;;;;;7.80;4.60;;;;;;;;;;5034153;28;20381;-66
2021/10/18 15:09:31;;;;;;;12.10;4.78;;;;;;;;;;5034497;28;20263;-66
2021/10/18 15:11:57;;;;;;;9.30;4.30;;;;;;;;;;5035068;28;20422;-66
2021/10/18 15:14:22;;;;;;;8.32;4.57;;;;;;;;;;5035239;28;20025;-66
2021/10/18 15:16:47;;;;;;;8.10;4.23;;;;;;;;;;5035792;28;20053;-66
2021/10/18 15:19:14;;;;;;;8.20;4.63;;;;;;;;;;5035192;28;20262;-66
2021/10/18 15:21:39;;;;;;;7.57;3.78;;;;;;;;;;5035588;28;20022;-66
2021/10/18 15:24:05;;;;;;;13.27;5.07;;;;;;;;;;5035851;28;20075;-66
2021/10/18 15:26:30;;;;;;;16.30;6.03;;;;;;;;;;5035557;28;20097;-66
2021/10/18 15:28:55;;;;;;;13.23;5.97;;;;;;;;;;5034431;28;20021;-66